sensor_id;sensor_type;location;lat;lon;timestamp;temperature;humidity
10802;DHT22;5453;50.852;7.102;2023-01-25T00:00:37;3.20;99.90
10802;DHT22;5453;50.852;7.102;2023-01-25T00:03:09;3.20;99.90
10802;DHT22;5453;50.852;7.102;2023-01-25T00:05:41;3.20;99.90
10802;DHT22;5453;50.852;7.102;2023-01-25T00:08:13;3.20;99.90
10802;DHT22;5453;50.852;7.102;2023-01-25T00:10:50;3.20;99.90
10802;DHT22;5453;50.852;7.102;2023-01-25T00:13:22;3.20;99.90
10802;DHT22;5453;50.852;7.102;2023-01-25T00:16:01;3.20;99.90
10802;DHT22;5453;50.852;7.102;2023-01-25T00:18:34;3.30;99.90
10802;DHT22;5453;50.852;7.102;2023-01-25T00:21:12;3.20;99.90
10802;DHT22;5453;50.852;7.102;2023-01-25T00:23:46;3.20;99.90
10802;DHT22;5453;50.852;7.102;2023-01-25T00:26:19;3.20;99.90
10802;DHT22;5453;50.852;7.102;2023-01-25T00:28:53;3.10;99.90
10802;DHT22;5453;50.852;7.102;2023-01-25T00:31:37;3.10;99.90
10802;DHT22;5453;50.852;7.102;2023-01-25T00:37:29;3.20;99.90
10802;DHT22;5453;50.852;7.102;2023-01-25T00:40:08;3.20;99.90
10802;DHT22;5453;50.852;7.102;2023-01-25T00:42:42;3.10;99.90
10802;DHT22;5453;50.852;7.102;2023-01-25T00:45:15;3.20;99.90
10802;DHT22;5453;50.852;7.102;2023-01-25T00:47:48;3.10;99.90
10802;DHT22;5453;50.852;7.102;2023-01-25T00:50:21;3.20;99.90
10802;DHT22;5453;50.852;7.102;2023-01-25T00:52:54;3.10;99.90
10802;DHT22;5453;50.852;7.102;2023-01-25T00:55:26;3.10;99.90
10802;DHT22;5453;50.852;7.102;2023-01-25T00:57:58;3.10;99.90
10802;DHT22;5453;50.852;7.102;2023-01-25T01:00:31;3.10;99.90
10802;DHT22;5453;50.852;7.102;2023-01-25T01:03:05;3.10;99.90
10802;DHT22;5453;50.852;7.102;2023-01-25T01:05:38;3.10;99.90
10802;DHT22;5453;50.852;7.102;2023-01-25T01:08:10;3.10;99.90
10802;DHT22;5453;50.852;7.102;2023-01-25T01:10:44;3.10;99.90
10802;DHT22;5453;50.852;7.102;2023-01-25T01:13:17;3.10;99.90
10802;DHT22;5453;50.852;7.102;2023-01-25T01:15:50;3.10;99.90
10802;DHT22;5453;50.852;7.102;2023-01-25T01:18:23;3.10;99.90
10802;DHT22;5453;50.852;7.102;2023-01-25T01:20:55;3.10;99.90
10802;DHT22;5453;50.852;7.102;2023-01-25T01:23:28;3.10;99.90
10802;DHT22;5453;50.852;7.102;2023-01-25T01:26:01;3.10;99.90
10802;DHT22;5453;50.852;7.102;2023-01-25T01:28:35;3.10;99.90
10802;DHT22;5453;50.852;7.102;2023-01-25T01:31:12;3.10;99.90
10802;DHT22;5453;50.852;7.102;2023-01-25T01:33:52;3.20;99.90
10802;DHT22;5453;50.852;7.102;2023-01-25T01:36:28;3.20;99.90
10802;DHT22;5453;50.852;7.102;2023-01-25T01:39:03;3.10;99.90
10802;DHT22;5453;50.852;7.102;2023-01-25T01:41:36;3.10;99.90
10802;DHT22;5453;50.852;7.102;2023-01-25T01:44:16;3.10;99.90
10802;DHT22;5453;50.852;7.102;2023-01-25T01:46:56;3.10;99.90
10802;DHT22;5453;50.852;7.102;2023-01-25T01:49:34;3.10;99.90
10802;DHT22;5453;50.852;7.102;2023-01-25T01:52:16;3.10;99.90
10802;DHT22;5453;50.852;7.102;2023-01-25T01:54:53;3.10;99.90
10802;DHT22;5453;50.852;7.102;2023-01-25T01:57:31;3.10;99.90
10802;DHT22;5453;50.852;7.102;2023-01-25T02:00:10;3.10;99.90
10802;DHT22;5453;50.852;7.102;2023-01-25T02:02:49;3.10;99.90
10802;DHT22;5453;50.852;7.102;2023-01-25T02:05:28;3.10;99.90
10802;DHT22;5453;50.852;7.102;2023-01-25T02:08:08;3.10;99.90
10802;DHT22;5453;50.852;7.102;2023-01-25T02:10:40;3.00;99.90
10802;DHT22;5453;50.852;7.102;2023-01-25T02:13:14;3.00;99.90
10802;DHT22;5453;50.852;7.102;2023-01-25T02:15:49;3.00;99.90
10802;DHT22;5453;50.852;7.102;2023-01-25T02:18:22;3.00;99.90
10802;DHT22;5453;50.852;7.102;2023-01-25T02:20:59;3.00;99.90
10802;DHT22;5453;50.852;7.102;2023-01-25T02:23:40;3.00;99.90
10802;DHT22;5453;50.852;7.102;2023-01-25T02:26:20;3.00;99.90
10802;DHT22;5453;50.852;7.102;2023-01-25T02:28:58;3.00;99.90
10802;DHT22;5453;50.852;7.102;2023-01-25T02:31:33;3.10;99.90
10802;DHT22;5453;50.852;7.102;2023-01-25T02:34:05;3.10;99.90
10802;DHT22;5453;50.852;7.102;2023-01-25T02:36:37;3.10;99.90
10802;DHT22;5453;50.852;7.102;2023-01-25T02:39:13;3.10;99.90
10802;DHT22;5453;50.852;7.102;2023-01-25T02:41:49;3.10;99.90
10802;DHT22;5453;50.852;7.102;2023-01-25T02:44:24;3.00;99.90
10802;DHT22;5453;50.852;7.102;2023-01-25T02:46:58;3.00;99.90
10802;DHT22;5453;50.852;7.102;2023-01-25T02:49:34;2.90;99.90
10802;DHT22;5453;50.852;7.102;2023-01-25T02:52:06;2.90;99.90
10802;DHT22;5453;50.852;7.102;2023-01-25T02:54:38;2.90;99.90
10802;DHT22;5453;50.852;7.102;2023-01-25T02:57:13;2.90;99.90
10802;DHT22;5453;50.852;7.102;2023-01-25T02:59:47;3.00;99.90
10802;DHT22;5453;50.852;7.102;2023-01-25T03:02:19;2.90;99.90
10802;DHT22;5453;50.852;7.102;2023-01-25T03:04:52;2.90;99.90
10802;DHT22;5453;50.852;7.102;2023-01-25T03:07:24;2.90;99.90
10802;DHT22;5453;50.852;7.102;2023-01-25T03:09:57;2.90;99.90
10802;DHT22;5453;50.852;7.102;2023-01-25T03:12:31;2.90;99.90
10802;DHT22;5453;50.852;7.102;2023-01-25T03:15:04;2.90;99.90
10802;DHT22;5453;50.852;7.102;2023-01-25T03:17:37;2.90;99.90
10802;DHT22;5453;50.852;7.102;2023-01-25T03:20:12;2.90;99.90
10802;DHT22;5453;50.852;7.102;2023-01-25T03:22:45;2.90;99.90
10802;DHT22;5453;50.852;7.102;2023-01-25T03:25:17;2.90;99.90
10802;DHT22;5453;50.852;7.102;2023-01-25T03:28:00;2.90;99.90
10802;DHT22;5453;50.852;7.102;2023-01-25T03:30:32;2.90;99.90
10802;DHT22;5453;50.852;7.102;2023-01-25T03:33:06;2.90;99.90
10802;DHT22;5453;50.852;7.102;2023-01-25T03:35:39;3.00;99.90
10802;DHT22;5453;50.852;7.102;2023-01-25T03:38:12;3.00;99.90
10802;DHT22;5453;50.852;7.102;2023-01-25T03:40:45;2.90;99.90
10802;DHT22;5453;50.852;7.102;2023-01-25T03:43:20;2.90;99.90
10802;DHT22;5453;50.852;7.102;2023-01-25T03:45:55;2.90;99.90
10802;DHT22;5453;50.852;7.102;2023-01-25T03:48:29;2.90;99.90
10802;DHT22;5453;50.852;7.102;2023-01-25T03:51:03;2.90;99.90
10802;DHT22;5453;50.852;7.102;2023-01-25T03:53:35;2.90;99.90
10802;DHT22;5453;50.852;7.102;2023-01-25T03:56:13;2.90;99.90
10802;DHT22;5453;50.852;7.102;2023-01-25T03:58:57;3.00;99.90
10802;DHT22;5453;50.852;7.102;2023-01-25T04:01:31;3.00;99.90
10802;DHT22;5453;50.852;7.102;2023-01-25T04:04:03;3.00;99.90
10802;DHT22;5453;50.852;7.102;2023-01-25T04:06:36;3.00;99.90
10802;DHT22;5453;50.852;7.102;2023-01-25T04:09:09;3.00;99.90
10802;DHT22;5453;50.852;7.102;2023-01-25T04:11:48;3.00;99.90
10802;DHT22;5453;50.852;7.102;2023-01-25T04:14:22;2.90;99.90
10802;DHT22;5453;50.852;7.102;2023-01-25T04:17:03;2.90;99.90
10802;DHT22;5453;50.852;7.102;2023-01-25T04:19:53;2.90;99.90
10802;DHT22;5453;50.852;7.102;2023-01-25T04:22:30;2.90;99.90
10802;DHT22;5453;50.852;7.102;2023-01-25T04:25:02;2.90;99.90
10802;DHT22;5453;50.852;7.102;2023-01-25T04:27:36;2.80;99.90
10802;DHT22;5453;50.852;7.102;2023-01-25T04:30:14;2.80;99.90
10802;DHT22;5453;50.852;7.102;2023-01-25T04:32:48;2.80;99.90
10802;DHT22;5453;50.852;7.102;2023-01-25T04:35:34;2.80;99.90
10802;DHT22;5453;50.852;7.102;2023-01-25T04:38:10;2.80;99.90
10802;DHT22;5453;50.852;7.102;2023-01-25T04:40:45;2.80;99.90
10802;DHT22;5453;50.852;7.102;2023-01-25T04:43:18;2.80;99.90
10802;DHT22;5453;50.852;7.102;2023-01-25T04:46:00;2.80;99.90
10802;DHT22;5453;50.852;7.102;2023-01-25T04:48:35;2.80;99.90
10802;DHT22;5453;50.852;7.102;2023-01-25T04:51:10;2.80;99.90
10802;DHT22;5453;50.852;7.102;2023-01-25T04:53:45;2.80;99.90
10802;DHT22;5453;50.852;7.102;2023-01-25T04:56:17;2.80;99.90
10802;DHT22;5453;50.852;7.102;2023-01-25T04:58:58;2.80;99.90
10802;DHT22;5453;50.852;7.102;2023-01-25T05:01:33;2.80;99.90
10802;DHT22;5453;50.852;7.102;2023-01-25T05:04:09;2.70;99.90
10802;DHT22;5453;50.852;7.102;2023-01-25T05:06:44;2.70;99.90
10802;DHT22;5453;50.852;7.102;2023-01-25T05:09:17;2.80;99.90
10802;DHT22;5453;50.852;7.102;2023-01-25T05:11:51;2.70;99.90
10802;DHT22;5453;50.852;7.102;2023-01-25T05:14:36;2.70;99.90
10802;DHT22;5453;50.852;7.102;2023-01-25T05:17:12;2.70;99.90
10802;DHT22;5453;50.852;7.102;2023-01-25T05:19:45;2.70;99.90
10802;DHT22;5453;50.852;7.102;2023-01-25T05:22:20;2.70;99.90
10802;DHT22;5453;50.852;7.102;2023-01-25T05:24:56;2.60;99.90
10802;DHT22;5453;50.852;7.102;2023-01-25T05:27:29;2.70;99.90
10802;DHT22;5453;50.852;7.102;2023-01-25T05:30:02;2.60;99.90
10802;DHT22;5453;50.852;7.102;2023-01-25T05:32:43;2.60;99.90
10802;DHT22;5453;50.852;7.102;2023-01-25T05:35:17;2.60;99.90
10802;DHT22;5453;50.852;7.102;2023-01-25T05:37:50;2.60;99.90
10802;DHT22;5453;50.852;7.102;2023-01-25T05:40:27;2.60;99.90
10802;DHT22;5453;50.852;7.102;2023-01-25T05:43:03;2.70;99.90
10802;DHT22;5453;50.852;7.102;2023-01-25T05:45:36;2.70;99.90
10802;DHT22;5453;50.852;7.102;2023-01-25T05:48:11;2.80;99.90
10802;DHT22;5453;50.852;7.102;2023-01-25T05:50:44;2.80;99.90
10802;DHT22;5453;50.852;7.102;2023-01-25T05:53:24;2.80;99.90
10802;DHT22;5453;50.852;7.102;2023-01-25T05:56:03;2.80;99.90
10802;DHT22;5453;50.852;7.102;2023-01-25T05:58:36;2.80;99.90
10802;DHT22;5453;50.852;7.102;2023-01-25T06:01:08;2.80;99.90
10802;DHT22;5453;50.852;7.102;2023-01-25T06:03:52;2.80;99.90
10802;DHT22;5453;50.852;7.102;2023-01-25T06:06:26;2.80;99.90
10802;DHT22;5453;50.852;7.102;2023-01-25T06:08:59;2.80;99.90
10802;DHT22;5453;50.852;7.102;2023-01-25T06:11:32;2.80;99.90
10802;DHT22;5453;50.852;7.102;2023-01-25T06:14:05;2.80;99.90
10802;DHT22;5453;50.852;7.102;2023-01-25T06:16:37;2.80;99.90
10802;DHT22;5453;50.852;7.102;2023-01-25T06:19:31;2.70;99.90
10802;DHT22;5453;50.852;7.102;2023-01-25T06:22:22;2.70;99.90
10802;DHT22;5453;50.852;7.102;2023-01-25T06:24:54;2.60;99.90
10802;DHT22;5453;50.852;7.102;2023-01-25T06:27:27;2.70;99.90
10802;DHT22;5453;50.852;7.102;2023-01-25T06:29:59;2.70;99.90
10802;DHT22;5453;50.852;7.102;2023-01-25T06:32:32;2.70;99.90
10802;DHT22;5453;50.852;7.102;2023-01-25T06:35:06;2.70;99.90
10802;DHT22;5453;50.852;7.102;2023-01-25T06:37:39;2.80;99.90
10802;DHT22;5453;50.852;7.102;2023-01-25T06:40:11;2.80;99.90
10802;DHT22;5453;50.852;7.102;2023-01-25T06:42:43;2.80;99.90
10802;DHT22;5453;50.852;7.102;2023-01-25T06:45:16;2.80;99.90
10802;DHT22;5453;50.852;7.102;2023-01-25T06:47:49;2.80;99.90
10802;DHT22;5453;50.852;7.102;2023-01-25T06:50:23;2.80;99.90
10802;DHT22;5453;50.852;7.102;2023-01-25T06:52:55;2.80;99.90
10802;DHT22;5453;50.852;7.102;2023-01-25T06:55:28;2.70;99.90
10802;DHT22;5453;50.852;7.102;2023-01-25T06:58:00;2.80;99.90
10802;DHT22;5453;50.852;7.102;2023-01-25T07:00:32;2.80;99.90
10802;DHT22;5453;50.852;7.102;2023-01-25T07:03:04;2.80;99.90
10802;DHT22;5453;50.852;7.102;2023-01-25T07:05:38;2.80;99.90
10802;DHT22;5453;50.852;7.102;2023-01-25T07:08:10;2.80;99.90
10802;DHT22;5453;50.852;7.102;2023-01-25T07:10:42;2.80;99.90
10802;DHT22;5453;50.852;7.102;2023-01-25T07:13:14;2.80;99.90
10802;DHT22;5453;50.852;7.102;2023-01-25T07:15:51;2.80;99.90
10802;DHT22;5453;50.852;7.102;2023-01-25T07:18:25;2.80;99.90
10802;DHT22;5453;50.852;7.102;2023-01-25T07:21:05;2.80;99.90
10802;DHT22;5453;50.852;7.102;2023-01-25T07:23:38;2.90;99.90
10802;DHT22;5453;50.852;7.102;2023-01-25T07:26:14;2.90;99.90
10802;DHT22;5453;50.852;7.102;2023-01-25T07:28:48;2.80;99.90
10802;DHT22;5453;50.852;7.102;2023-01-25T07:31:21;2.80;99.90
10802;DHT22;5453;50.852;7.102;2023-01-25T07:33:55;3.00;99.90
10802;DHT22;5453;50.852;7.102;2023-01-25T07:36:29;3.10;99.90
10802;DHT22;5453;50.852;7.102;2023-01-25T07:39:02;3.10;99.90
10802;DHT22;5453;50.852;7.102;2023-01-25T07:41:34;3.10;99.90
10802;DHT22;5453;50.852;7.102;2023-01-25T07:44:06;3.10;99.90
10802;DHT22;5453;50.852;7.102;2023-01-25T07:46:42;3.10;99.90
10802;DHT22;5453;50.852;7.102;2023-01-25T07:49:14;3.00;99.90
10802;DHT22;5453;50.852;7.102;2023-01-25T07:51:48;2.90;99.90
10802;DHT22;5453;50.852;7.102;2023-01-25T07:54:20;2.90;99.90
10802;DHT22;5453;50.852;7.102;2023-01-25T07:56:52;2.80;99.90
10802;DHT22;5453;50.852;7.102;2023-01-25T07:59:24;2.80;99.90
10802;DHT22;5453;50.852;7.102;2023-01-25T08:01:57;2.80;99.90
10802;DHT22;5453;50.852;7.102;2023-01-25T08:04:29;2.80;99.90
10802;DHT22;5453;50.852;7.102;2023-01-25T08:07:02;2.80;99.90
10802;DHT22;5453;50.852;7.102;2023-01-25T08:09:35;2.80;99.90
10802;DHT22;5453;50.852;7.102;2023-01-25T08:12:07;2.70;99.90
10802;DHT22;5453;50.852;7.102;2023-01-25T08:14:39;2.70;99.90
10802;DHT22;5453;50.852;7.102;2023-01-25T08:17:12;2.70;99.90
10802;DHT22;5453;50.852;7.102;2023-01-25T08:19:44;2.70;99.90
10802;DHT22;5453;50.852;7.102;2023-01-25T08:22:17;2.70;99.90
10802;DHT22;5453;50.852;7.102;2023-01-25T08:24:49;2.70;99.90
10802;DHT22;5453;50.852;7.102;2023-01-25T08:27:21;2.70;99.90
10802;DHT22;5453;50.852;7.102;2023-01-25T08:29:53;2.70;99.90
10802;DHT22;5453;50.852;7.102;2023-01-25T08:32:25;2.80;99.90
10802;DHT22;5453;50.852;7.102;2023-01-25T08:34:57;2.80;99.90
10802;DHT22;5453;50.852;7.102;2023-01-25T08:37:31;2.80;99.90
10802;DHT22;5453;50.852;7.102;2023-01-25T08:40:04;2.80;99.90
10802;DHT22;5453;50.852;7.102;2023-01-25T08:42:36;2.80;99.90
10802;DHT22;5453;50.852;7.102;2023-01-25T08:45:09;2.80;99.90
10802;DHT22;5453;50.852;7.102;2023-01-25T08:47:41;2.80;99.90
10802;DHT22;5453;50.852;7.102;2023-01-25T08:50:14;2.80;99.90
10802;DHT22;5453;50.852;7.102;2023-01-25T08:52:47;2.90;99.90
10802;DHT22;5453;50.852;7.102;2023-01-25T08:55:19;2.90;99.90
10802;DHT22;5453;50.852;7.102;2023-01-25T08:57:52;2.90;99.90
10802;DHT22;5453;50.852;7.102;2023-01-25T09:00:24;2.80;99.90
10802;DHT22;5453;50.852;7.102;2023-01-25T09:02:57;2.80;99.90
10802;DHT22;5453;50.852;7.102;2023-01-25T09:05:29;2.80;99.90
10802;DHT22;5453;50.852;7.102;2023-01-25T09:08:03;2.70;99.90
10802;DHT22;5453;50.852;7.102;2023-01-25T09:10:37;2.60;99.90
10802;DHT22;5453;50.852;7.102;2023-01-25T09:13:09;2.60;99.90
10802;DHT22;5453;50.852;7.102;2023-01-25T09:15:41;2.60;99.90
10802;DHT22;5453;50.852;7.102;2023-01-25T09:18:14;2.60;99.90
10802;DHT22;5453;50.852;7.102;2023-01-25T09:20:46;2.60;99.90
10802;DHT22;5453;50.852;7.102;2023-01-25T09:23:19;2.60;99.90
10802;DHT22;5453;50.852;7.102;2023-01-25T09:25:56;2.70;99.90
10802;DHT22;5453;50.852;7.102;2023-01-25T09:28:30;2.70;99.90
10802;DHT22;5453;50.852;7.102;2023-01-25T09:31:04;2.70;99.90
10802;DHT22;5453;50.852;7.102;2023-01-25T09:34:00;2.70;99.90
10802;DHT22;5453;50.852;7.102;2023-01-25T09:36:33;2.70;99.90
10802;DHT22;5453;50.852;7.102;2023-01-25T09:39:06;2.70;99.90
10802;DHT22;5453;50.852;7.102;2023-01-25T09:42:24;2.80;99.90
10802;DHT22;5453;50.852;7.102;2023-01-25T09:45:10;2.80;99.90
10802;DHT22;5453;50.852;7.102;2023-01-25T09:47:50;2.80;99.90
10802;DHT22;5453;50.852;7.102;2023-01-25T09:50:35;2.70;99.90
10802;DHT22;5453;50.852;7.102;2023-01-25T09:53:36;2.70;99.90
10802;DHT22;5453;50.852;7.102;2023-01-25T09:56:12;2.70;99.90
10802;DHT22;5453;50.852;7.102;2023-01-25T09:58:50;2.70;99.90
10802;DHT22;5453;50.852;7.102;2023-01-25T10:01:28;2.70;99.90
10802;DHT22;5453;50.852;7.102;2023-01-25T10:04:09;2.70;99.90
10802;DHT22;5453;50.852;7.102;2023-01-25T10:06:47;2.60;99.90
10802;DHT22;5453;50.852;7.102;2023-01-25T10:09:33;2.60;99.90
10802;DHT22;5453;50.852;7.102;2023-01-25T10:12:16;2.60;99.90
10802;DHT22;5453;50.852;7.102;2023-01-25T10:14:51;2.60;99.90
10802;DHT22;5453;50.852;7.102;2023-01-25T10:17:28;2.70;99.90
10802;DHT22;5453;50.852;7.102;2023-01-25T10:20:14;2.70;99.90
10802;DHT22;5453;50.852;7.102;2023-01-25T10:22:59;2.70;99.90
10802;DHT22;5453;50.852;7.102;2023-01-25T10:25:53;2.70;99.90
10802;DHT22;5453;50.852;7.102;2023-01-25T10:28:38;2.70;99.90
10802;DHT22;5453;50.852;7.102;2023-01-25T10:31:16;2.60;99.90
10802;DHT22;5453;50.852;7.102;2023-01-25T10:33:50;2.60;99.90
10802;DHT22;5453;50.852;7.102;2023-01-25T10:36:28;2.70;99.90
10802;DHT22;5453;50.852;7.102;2023-01-25T10:39:01;2.70;99.90
10802;DHT22;5453;50.852;7.102;2023-01-25T10:41:38;2.70;99.90
10802;DHT22;5453;50.852;7.102;2023-01-25T10:44:14;2.70;99.90
10802;DHT22;5453;50.852;7.102;2023-01-25T10:46:58;2.80;99.90
10802;DHT22;5453;50.852;7.102;2023-01-25T10:49:40;2.80;99.90
10802;DHT22;5453;50.852;7.102;2023-01-25T10:52:15;2.80;99.90
10802;DHT22;5453;50.852;7.102;2023-01-25T10:55:00;3.10;99.90
10802;DHT22;5453;50.852;7.102;2023-01-25T10:57:41;3.10;99.90
10802;DHT22;5453;50.852;7.102;2023-01-25T11:00:23;3.10;99.90
10802;DHT22;5453;50.852;7.102;2023-01-25T11:02:57;3.00;99.90
10802;DHT22;5453;50.852;7.102;2023-01-25T11:05:32;3.00;99.90
10802;DHT22;5453;50.852;7.102;2023-01-25T11:08:21;3.00;99.90
10802;DHT22;5453;50.852;7.102;2023-01-25T11:10:55;3.00;99.90
10802;DHT22;5453;50.852;7.102;2023-01-25T11:13:30;3.00;99.90
10802;DHT22;5453;50.852;7.102;2023-01-25T11:16:19;2.90;99.90
10802;DHT22;5453;50.852;7.102;2023-01-25T11:19:02;2.90;99.90
10802;DHT22;5453;50.852;7.102;2023-01-25T11:21:34;2.90;99.90
10802;DHT22;5453;50.852;7.102;2023-01-25T11:24:16;2.90;99.90
10802;DHT22;5453;50.852;7.102;2023-01-25T11:26:48;2.90;99.90
10802;DHT22;5453;50.852;7.102;2023-01-25T11:29:21;2.90;99.90
10802;DHT22;5453;50.852;7.102;2023-01-25T11:31:55;3.00;99.90
10802;DHT22;5453;50.852;7.102;2023-01-25T11:34:29;3.00;99.90
10802;DHT22;5453;50.852;7.102;2023-01-25T11:37:17;3.00;99.90
10802;DHT22;5453;50.852;7.102;2023-01-25T11:40:05;3.00;99.90
10802;DHT22;5453;50.852;7.102;2023-01-25T11:42:54;2.90;99.90
10802;DHT22;5453;50.852;7.102;2023-01-25T11:45:57;2.90;99.90
10802;DHT22;5453;50.852;7.102;2023-01-25T11:49:01;2.90;99.90
10802;DHT22;5453;50.852;7.102;2023-01-25T11:51:42;2.90;99.90
10802;DHT22;5453;50.852;7.102;2023-01-25T11:54:37;2.90;99.90
10802;DHT22;5453;50.852;7.102;2023-01-25T11:57:47;2.90;99.90
10802;DHT22;5453;50.852;7.102;2023-01-25T12:00:34;2.90;99.90
10802;DHT22;5453;50.852;7.102;2023-01-25T12:06:55;2.90;99.90
10802;DHT22;5453;50.852;7.102;2023-01-25T12:09:42;2.90;99.90
10802;DHT22;5453;50.852;7.102;2023-01-25T12:12:28;2.90;99.90
10802;DHT22;5453;50.852;7.102;2023-01-25T12:15:24;2.80;99.90
10802;DHT22;5453;50.852;7.102;2023-01-25T12:18:32;2.90;99.90
10802;DHT22;5453;50.852;7.102;2023-01-25T12:21:21;2.80;99.90
10802;DHT22;5453;50.852;7.102;2023-01-25T12:24:07;2.90;99.90
10802;DHT22;5453;50.852;7.102;2023-01-25T12:26:53;2.90;99.90
10802;DHT22;5453;50.852;7.102;2023-01-25T12:29:34;2.90;99.90
10802;DHT22;5453;50.852;7.102;2023-01-25T12:32:13;2.90;99.90
10802;DHT22;5453;50.852;7.102;2023-01-25T12:35:00;2.90;99.90
10802;DHT22;5453;50.852;7.102;2023-01-25T12:37:39;2.80;99.90
10802;DHT22;5453;50.852;7.102;2023-01-25T12:40:17;2.80;99.90
10802;DHT22;5453;50.852;7.102;2023-01-25T12:42:54;2.80;99.90
10802;DHT22;5453;50.852;7.102;2023-01-25T12:45:31;2.80;99.90
10802;DHT22;5453;50.852;7.102;2023-01-25T12:48:15;2.70;99.90
10802;DHT22;5453;50.852;7.102;2023-01-25T12:50:53;2.70;99.90
10802;DHT22;5453;50.852;7.102;2023-01-25T12:53:30;2.60;99.90
10802;DHT22;5453;50.852;7.102;2023-01-25T12:56:07;2.60;99.90
10802;DHT22;5453;50.852;7.102;2023-01-25T12:58:48;2.60;99.90
10802;DHT22;5453;50.852;7.102;2023-01-25T13:01:31;2.60;99.90
10802;DHT22;5453;50.852;7.102;2023-01-25T13:04:18;2.60;99.90
10802;DHT22;5453;50.852;7.102;2023-01-25T13:07:00;2.60;99.90
10802;DHT22;5453;50.852;7.102;2023-01-25T13:09:44;2.60;99.90
10802;DHT22;5453;50.852;7.102;2023-01-25T13:12:24;2.70;99.90
10802;DHT22;5453;50.852;7.102;2023-01-25T13:14:56;2.70;99.90
10802;DHT22;5453;50.852;7.102;2023-01-25T13:17:29;2.80;99.90
10802;DHT22;5453;50.852;7.102;2023-01-25T13:23:30;2.80;99.90
10802;DHT22;5453;50.852;7.102;2023-01-25T13:29:58;2.80;99.90
10802;DHT22;5453;50.852;7.102;2023-01-25T13:32:54;2.80;99.90
10802;DHT22;5453;50.852;7.102;2023-01-25T13:35:34;2.90;99.90
10802;DHT22;5453;50.852;7.102;2023-01-25T13:38:25;2.90;99.90
10802;DHT22;5453;50.852;7.102;2023-01-25T13:41:08;2.80;99.90
10802;DHT22;5453;50.852;7.102;2023-01-25T13:43:49;2.80;99.90
10802;DHT22;5453;50.852;7.102;2023-01-25T13:46:27;2.80;99.90
10802;DHT22;5453;50.852;7.102;2023-01-25T13:49:03;2.70;99.90
10802;DHT22;5453;50.852;7.102;2023-01-25T13:51:38;2.70;99.90
10802;DHT22;5453;50.852;7.102;2023-01-25T13:54:14;2.60;99.90
10802;DHT22;5453;50.852;7.102;2023-01-25T13:56:47;2.70;99.90
10802;DHT22;5453;50.852;7.102;2023-01-25T13:59:33;2.70;99.90
10802;DHT22;5453;50.852;7.102;2023-01-25T14:02:12;2.70;99.90
10802;DHT22;5453;50.852;7.102;2023-01-25T14:04:50;2.70;99.90
10802;DHT22;5453;50.852;7.102;2023-01-25T14:07:27;2.80;99.90
10802;DHT22;5453;50.852;7.102;2023-01-25T14:10:07;2.80;99.90
10802;DHT22;5453;50.852;7.102;2023-01-25T14:12:42;2.80;99.90
10802;DHT22;5453;50.852;7.102;2023-01-25T14:15:18;2.80;99.90
10802;DHT22;5453;50.852;7.102;2023-01-25T14:18:13;2.80;99.90
10802;DHT22;5453;50.852;7.102;2023-01-25T14:20:49;2.80;99.90
10802;DHT22;5453;50.852;7.102;2023-01-25T14:23:23;2.80;99.90
10802;DHT22;5453;50.852;7.102;2023-01-25T14:25:58;2.80;99.90
10802;DHT22;5453;50.852;7.102;2023-01-25T14:28:31;2.80;99.90
10802;DHT22;5453;50.852;7.102;2023-01-25T14:31:03;2.70;99.90
10802;DHT22;5453;50.852;7.102;2023-01-25T14:33:47;2.70;99.90
10802;DHT22;5453;50.852;7.102;2023-01-25T14:36:27;2.80;99.90
10802;DHT22;5453;50.852;7.102;2023-01-25T14:39:00;2.80;99.90
10802;DHT22;5453;50.852;7.102;2023-01-25T14:41:35;2.80;99.90
10802;DHT22;5453;50.852;7.102;2023-01-25T14:44:11;2.80;99.90
10802;DHT22;5453;50.852;7.102;2023-01-25T14:46:44;2.80;99.90
10802;DHT22;5453;50.852;7.102;2023-01-25T14:49:20;2.80;99.90
10802;DHT22;5453;50.852;7.102;2023-01-25T14:52:01;2.80;99.90
10802;DHT22;5453;50.852;7.102;2023-01-25T14:54:36;2.80;99.90
10802;DHT22;5453;50.852;7.102;2023-01-25T14:57:28;2.80;99.90
10802;DHT22;5453;50.852;7.102;2023-01-25T15:00:04;2.80;99.90
10802;DHT22;5453;50.852;7.102;2023-01-25T15:02:43;2.80;99.90
10802;DHT22;5453;50.852;7.102;2023-01-25T15:05:20;2.70;99.90
10802;DHT22;5453;50.852;7.102;2023-01-25T15:07:55;2.70;99.90
10802;DHT22;5453;50.852;7.102;2023-01-25T15:10:29;2.70;99.90
10802;DHT22;5453;50.852;7.102;2023-01-25T15:13:04;2.60;99.90
10802;DHT22;5453;50.852;7.102;2023-01-25T15:15:52;2.60;99.90
10802;DHT22;5453;50.852;7.102;2023-01-25T15:18:40;2.70;99.90
10802;DHT22;5453;50.852;7.102;2023-01-25T15:21:16;2.70;99.90
10802;DHT22;5453;50.852;7.102;2023-01-25T15:23:49;2.60;99.90
10802;DHT22;5453;50.852;7.102;2023-01-25T15:26:23;2.70;99.90
10802;DHT22;5453;50.852;7.102;2023-01-25T15:28:59;2.70;99.90
10802;DHT22;5453;50.852;7.102;2023-01-25T15:31:35;2.70;99.90
10802;DHT22;5453;50.852;7.102;2023-01-25T15:34:10;2.70;99.90
10802;DHT22;5453;50.852;7.102;2023-01-25T15:36:47;2.70;99.90
10802;DHT22;5453;50.852;7.102;2023-01-25T15:39:21;2.70;99.90
10802;DHT22;5453;50.852;7.102;2023-01-25T15:41:54;2.70;99.90
10802;DHT22;5453;50.852;7.102;2023-01-25T15:44:26;2.70;99.90
10802;DHT22;5453;50.852;7.102;2023-01-25T15:46:58;2.70;99.90
10802;DHT22;5453;50.852;7.102;2023-01-25T15:49:31;2.70;99.90
10802;DHT22;5453;50.852;7.102;2023-01-25T15:52:09;2.70;99.90
10802;DHT22;5453;50.852;7.102;2023-01-25T15:54:41;2.80;99.90
10802;DHT22;5453;50.852;7.102;2023-01-25T15:57:19;2.70;99.90
10802;DHT22;5453;50.852;7.102;2023-01-25T15:59:55;2.70;99.90
10802;DHT22;5453;50.852;7.102;2023-01-25T16:02:28;2.70;99.90
10802;DHT22;5453;50.852;7.102;2023-01-25T16:05:00;2.70;99.90
10802;DHT22;5453;50.852;7.102;2023-01-25T16:07:35;2.70;99.90
10802;DHT22;5453;50.852;7.102;2023-01-25T16:10:18;2.70;99.90
10802;DHT22;5453;50.852;7.102;2023-01-25T16:12:52;2.70;99.90
10802;DHT22;5453;50.852;7.102;2023-01-25T16:15:24;2.70;99.90
10802;DHT22;5453;50.852;7.102;2023-01-25T16:17:56;2.70;99.90
10802;DHT22;5453;50.852;7.102;2023-01-25T16:20:29;2.70;99.90
10802;DHT22;5453;50.852;7.102;2023-01-25T16:23:02;2.70;99.90
10802;DHT22;5453;50.852;7.102;2023-01-25T16:25:34;2.70;99.90
10802;DHT22;5453;50.852;7.102;2023-01-25T16:28:11;2.70;99.90
10802;DHT22;5453;50.852;7.102;2023-01-25T16:30:44;2.60;99.90
10802;DHT22;5453;50.852;7.102;2023-01-25T16:33:16;2.60;99.90
10802;DHT22;5453;50.852;7.102;2023-01-25T16:36:02;2.60;99.90
10802;DHT22;5453;50.852;7.102;2023-01-25T16:38:42;2.60;99.90
10802;DHT22;5453;50.852;7.102;2023-01-25T16:41:14;2.60;99.90
10802;DHT22;5453;50.852;7.102;2023-01-25T16:43:48;2.60;99.90
10802;DHT22;5453;50.852;7.102;2023-01-25T16:46:22;2.60;99.90
10802;DHT22;5453;50.852;7.102;2023-01-25T16:48:56;2.60;99.90
10802;DHT22;5453;50.852;7.102;2023-01-25T16:51:28;2.60;99.90
10802;DHT22;5453;50.852;7.102;2023-01-25T16:54:02;2.60;99.90
10802;DHT22;5453;50.852;7.102;2023-01-25T16:56:34;2.60;99.90
10802;DHT22;5453;50.852;7.102;2023-01-25T16:59:06;2.60;99.90
10802;DHT22;5453;50.852;7.102;2023-01-25T17:01:40;2.60;99.90
10802;DHT22;5453;50.852;7.102;2023-01-25T17:04:12;2.60;99.90
10802;DHT22;5453;50.852;7.102;2023-01-25T17:06:47;2.50;99.90
10802;DHT22;5453;50.852;7.102;2023-01-25T17:09:21;2.60;99.90
10802;DHT22;5453;50.852;7.102;2023-01-25T17:11:53;2.60;99.90
10802;DHT22;5453;50.852;7.102;2023-01-25T17:14:25;2.60;99.90
10802;DHT22;5453;50.852;7.102;2023-01-25T17:16:57;2.60;99.90